createdAt,value
2023-05-04T00:02:22.302Z,3.92
2023-05-04T00:04:51.775Z,3.86
2023-05-04T00:07:18.430Z,3.85
2023-05-04T00:09:44.813Z,3.90
2023-05-04T00:12:11.541Z,3.75
2023-05-04T00:14:37.913Z,3.73
2023-05-04T00:17:06.496Z,3.74
2023-05-04T00:19:34.572Z,3.76
2023-05-04T00:22:01.125Z,3.77
2023-05-04T00:24:27.670Z,3.81
2023-05-04T00:26:54.559Z,3.72
2023-05-04T00:29:21.117Z,3.72
2023-05-04T00:31:47.654Z,3.75
2023-05-04T00:34:15.594Z,3.72
2023-05-04T00:36:42.694Z,3.75
2023-05-04T00:39:09.065Z,3.74
2023-05-04T00:41:35.466Z,3.76
2023-05-04T00:44:04.199Z,3.77
2023-05-04T00:46:31.063Z,3.65
2023-05-04T00:48:59.417Z,3.59
2023-05-04T00:51:26.395Z,3.63
2023-05-04T00:53:53.762Z,3.45
2023-05-04T00:56:21.442Z,3.45
2023-05-04T00:58:48.026Z,3.42
2023-05-04T01:01:14.461Z,3.38
2023-05-04T01:03:41.035Z,3.37
2023-05-04T01:06:11.412Z,3.41
2023-05-04T01:08:39.200Z,3.31
2023-05-04T01:11:13.491Z,3.22
2023-05-04T01:13:39.905Z,3.33
2023-05-04T01:16:06.355Z,3.31
2023-05-04T01:18:32.750Z,3.21
2023-05-04T01:20:59.145Z,3.26
2023-05-04T01:23:26.220Z,3.20
2023-05-04T01:26:11.719Z,3.17
2023-05-04T01:28:42.161Z,3.12
2023-05-04T01:31:09.193Z,3.10
2023-05-04T01:33:35.708Z,3.08
2023-05-04T01:36:02.036Z,3.05
2023-05-04T01:38:28.406Z,3.07
2023-05-04T01:40:54.913Z,2.97
2023-05-04T01:43:21.293Z,3.00
2023-05-04T01:45:48.033Z,2.99
2023-05-04T01:48:14.465Z,3.02
2023-05-04T01:50:41.130Z,3.04
2023-05-04T01:53:07.470Z,3.08
2023-05-04T01:55:33.924Z,3.05
2023-05-04T01:58:00.582Z,2.98
2023-05-04T02:00:27.472Z,2.90
2023-05-04T02:02:53.908Z,2.87
2023-05-04T02:05:20.306Z,2.78
2023-05-04T02:07:46.702Z,2.77
2023-05-04T02:10:14.392Z,2.76
2023-05-04T02:12:42.883Z,2.79
2023-05-04T02:15:09.521Z,2.74
2023-05-04T02:17:36.150Z,2.76
2023-05-04T02:20:04.645Z,2.74
2023-05-04T02:22:31.384Z,2.74
2023-05-04T02:24:57.746Z,2.75
2023-05-04T02:27:24.087Z,2.69
2023-05-04T02:29:50.419Z,2.63
2023-05-04T02:32:16.877Z,2.64
2023-05-04T02:34:43.229Z,2.63
2023-05-04T02:37:09.658Z,2.64
2023-05-04T02:39:36.354Z,2.64
2023-05-04T02:42:03.119Z,2.62
2023-05-04T02:44:29.465Z,2.60
2023-05-04T02:46:55.869Z,2.59
2023-05-04T02:49:22.801Z,2.60
2023-05-04T02:51:49.169Z,2.57
2023-05-04T02:54:15.547Z,2.58
2023-05-04T02:56:41.881Z,2.50
2023-05-04T02:59:08.241Z,2.41
2023-05-04T03:01:35.088Z,2.35
2023-05-04T03:04:01.574Z,2.36
2023-05-04T03:06:28.018Z,2.38
2023-05-04T03:08:54.396Z,2.41
2023-05-04T03:11:20.844Z,2.42
2023-05-04T03:13:47.197Z,2.45
2023-05-04T03:16:13.611Z,2.49
2023-05-04T03:18:39.979Z,2.53
2023-05-04T03:21:06.313Z,2.54
2023-05-04T03:23:32.672Z,2.44
2023-05-04T03:25:59.010Z,2.47
2023-05-04T03:28:25.364Z,2.45
2023-05-04T03:30:51.833Z,2.51
2023-05-04T03:33:18.177Z,2.57
2023-05-04T03:35:44.532Z,2.53
2023-05-04T03:38:11.452Z,2.54
2023-05-04T03:40:37.814Z,2.56
2023-05-04T03:43:04.156Z,2.52
2023-05-04T03:45:30.533Z,2.55
2023-05-04T03:47:57.286Z,2.55
2023-05-04T03:50:23.750Z,2.55
2023-05-04T03:52:52.413Z,2.57
2023-05-04T03:55:19.168Z,2.63
2023-05-04T03:57:45.703Z,2.71
2023-05-04T04:00:12.344Z,2.80
2023-05-04T04:02:38.862Z,2.86
2023-05-04T04:05:06.446Z,2.92
2023-05-04T04:07:33.215Z,2.95
2023-05-04T04:09:59.556Z,3.06
2023-05-04T04:12:25.900Z,3.15
2023-05-04T04:14:52.535Z,3.23
2023-05-04T04:17:18.999Z,3.32
2023-05-04T04:19:45.343Z,3.38
2023-05-04T04:22:11.719Z,3.46
2023-05-04T04:24:38.069Z,3.55
2023-05-04T04:27:04.398Z,3.66
2023-05-04T04:29:30.830Z,3.74
2023-05-04T04:31:57.255Z,3.85
2023-05-04T04:34:23.878Z,3.95
2023-05-04T04:36:51.243Z,4.04
2023-05-04T04:39:17.909Z,4.10
2023-05-04T04:41:44.319Z,4.19
2023-05-04T04:44:11.657Z,4.31
2023-05-04T04:46:38.062Z,4.41
2023-05-04T04:49:06.796Z,4.50
2023-05-04T04:51:33.266Z,4.59
2023-05-04T04:53:59.684Z,4.70
2023-05-04T04:56:26.469Z,4.83
2023-05-04T04:58:53.422Z,4.94
2023-05-04T05:01:19.863Z,5.03
2023-05-04T05:03:46.335Z,5.16
2023-05-04T05:06:14.178Z,5.34
2023-05-04T05:08:40.603Z,5.46
2023-05-04T05:11:07.095Z,5.56
2023-05-04T05:13:33.559Z,5.71
2023-05-04T05:15:59.936Z,5.87
2023-05-04T05:18:26.917Z,6.03
2023-05-04T05:20:53.318Z,6.25
2023-05-04T05:23:19.705Z,6.41
2023-05-04T05:25:46.114Z,6.57
2023-05-04T05:28:13.484Z,6.73
2023-05-04T05:30:39.899Z,6.90
2023-05-04T05:33:06.362Z,7.08
2023-05-04T05:35:32.821Z,7.28
2023-05-04T05:37:59.399Z,7.35
2023-05-04T05:40:25.856Z,7.43
2023-05-04T05:42:52.405Z,7.53
2023-05-04T05:45:19.253Z,7.63
2023-05-04T05:47:45.632Z,7.70
2023-05-04T05:50:13.356Z,7.85
2023-05-04T05:52:39.729Z,8.05
2023-05-04T05:55:06.139Z,8.18
2023-05-04T05:57:32.538Z,8.31
2023-05-04T05:59:58.989Z,8.43
2023-05-04T06:02:26.302Z,8.73
2023-05-04T06:04:52.843Z,8.82
2023-05-04T06:07:19.670Z,9.10
2023-05-04T06:09:46.034Z,9.24
2023-05-04T06:12:14.992Z,9.47
2023-05-04T06:14:41.419Z,9.58
2023-05-04T06:17:07.775Z,9.90
2023-05-04T06:19:35.355Z,10.21
2023-05-04T06:22:01.826Z,10.34
2023-05-04T06:24:29.869Z,10.40
2023-05-04T06:26:56.401Z,10.29
2023-05-04T06:29:22.811Z,10.38
2023-05-04T06:31:49.305Z,10.56
2023-05-04T06:34:17.024Z,10.43
2023-05-04T06:36:43.570Z,10.52
2023-05-04T06:39:10.386Z,10.62
2023-05-04T06:41:37.211Z,10.54
2023-05-04T06:44:04.461Z,10.71
2023-05-04T06:46:31.523Z,10.47
2023-05-04T06:48:58.300Z,10.60
2023-05-04T06:51:24.745Z,10.97
2023-05-04T06:53:51.085Z,10.98
2023-05-04T06:56:17.453Z,11.07
2023-05-04T06:58:43.821Z,11.32
2023-05-04T07:01:11.239Z,11.37
2023-05-04T07:03:39.127Z,11.33
2023-05-04T07:06:05.987Z,11.49
2023-05-04T07:08:33.142Z,11.53
2023-05-04T07:10:59.590Z,11.31
2023-05-04T07:13:25.975Z,11.71
2023-05-04T07:15:52.426Z,12.04
2023-05-04T07:18:18.848Z,12.19
2023-05-04T07:20:47.474Z,12.13
2023-05-04T07:23:13.829Z,12.50
2023-05-04T07:25:40.180Z,12.51
2023-05-04T07:28:06.539Z,12.69
2023-05-04T07:30:32.895Z,11.99
2023-05-04T07:32:59.348Z,12.61
2023-05-04T07:35:25.726Z,13.24
2023-05-04T07:37:52.104Z,13.50
2023-05-04T07:40:18.606Z,13.63
2023-05-04T07:42:46.388Z,13.33
2023-05-04T07:45:13.077Z,13.44
2023-05-04T07:47:39.461Z,13.59
2023-05-04T07:50:06.301Z,14.10
2023-05-04T07:52:33.065Z,14.20
2023-05-04T07:55:00.779Z,14.02
2023-05-04T07:57:27.420Z,13.65
2023-05-04T07:59:55.947Z,13.95
2023-05-04T08:02:22.762Z,14.21
2023-05-04T08:04:49.352Z,14.76
2023-05-04T08:07:17.520Z,14.29
2023-05-04T08:09:43.944Z,14.40
2023-05-04T08:12:12.285Z,14.75
2023-05-04T08:14:39.285Z,14.79
2023-05-04T08:17:05.712Z,15.22
2023-05-04T08:19:32.077Z,15.63
2023-05-04T08:21:58.436Z,15.15
2023-05-04T08:24:28.104Z,15.12
2023-05-04T08:27:07.251Z,15.13
2023-05-04T08:29:37.111Z,15.02
2023-05-04T08:32:03.904Z,15.70
2023-05-04T08:34:32.853Z,15.61
2023-05-04T08:36:59.494Z,15.99
2023-05-04T08:39:25.886Z,15.89
2023-05-04T08:41:52.451Z,15.37
2023-05-04T08:44:21.568Z,15.57
2023-05-04T08:46:56.664Z,15.50
2023-05-04T08:49:23.779Z,15.55
2023-05-04T08:51:52.802Z,15.31
2023-05-04T08:54:19.185Z,16.01
2023-05-04T08:56:46.988Z,15.99
2023-05-04T08:59:20.277Z,15.88
2023-05-04T09:01:51.245Z,15.91
2023-05-04T09:04:20.322Z,15.94
2023-05-04T09:06:47.827Z,15.79
2023-05-04T09:09:16.434Z,16.30
2023-05-04T09:11:43.679Z,16.47
2023-05-04T09:14:10.143Z,16.62
2023-05-04T09:16:36.777Z,16.69
2023-05-04T09:19:04.894Z,16.56
2023-05-04T09:21:31.605Z,16.68
2023-05-04T09:23:58.237Z,16.30
2023-05-04T09:26:30.942Z,16.48
2023-05-04T09:28:57.727Z,17.02
2023-05-04T09:31:24.442Z,17.17
2023-05-04T09:33:53.246Z,17.31
2023-05-04T09:36:21.976Z,17.17
2023-05-04T09:38:48.844Z,17.01
2023-05-04T09:41:15.362Z,16.62
2023-05-04T09:43:42.961Z,17.02
2023-05-04T09:46:18.935Z,16.96
2023-05-04T09:48:52.347Z,16.96
2023-05-04T09:51:21.233Z,17.53
2023-05-04T09:53:48.506Z,17.68
2023-05-04T09:56:22.117Z,17.72
2023-05-04T09:58:49.157Z,17.74
2023-05-04T10:01:16.136Z,17.49
2023-05-04T10:03:43.424Z,17.83
2023-05-04T10:06:10.784Z,17.90
2023-05-04T10:08:38.002Z,18.15
2023-05-04T10:11:04.388Z,18.38
2023-05-04T10:13:30.985Z,18.02
2023-05-04T10:16:09.450Z,18.12
2023-05-04T10:18:35.976Z,17.95
2023-05-04T10:21:20.699Z,17.98
2023-05-04T10:23:47.324Z,18.27
2023-05-04T10:26:13.674Z,18.50
2023-05-04T10:28:39.990Z,17.81
2023-05-04T10:31:07.539Z,18.16
2023-05-04T10:33:42.672Z,17.92
2023-05-04T10:36:09.823Z,18.27
2023-05-04T10:38:36.599Z,18.49
2023-05-04T10:41:18.701Z,18.63
2023-05-04T10:43:54.231Z,17.81
2023-05-04T10:46:21.545Z,18.02
2023-05-04T10:48:48.498Z,18.13
2023-05-04T10:51:32.629Z,18.11
2023-05-04T10:54:05.335Z,18.06
2023-05-04T10:56:31.683Z,17.68
2023-05-04T10:59:07.686Z,18.03
2023-05-04T11:01:41.198Z,18.05
2023-05-04T11:04:07.771Z,18.33
2023-05-04T11:06:48.356Z,18.09
2023-05-04T11:09:15.409Z,17.97
2023-05-04T11:11:42.800Z,18.27
2023-05-04T11:14:10.740Z,18.64
2023-05-04T11:16:37.142Z,18.85
2023-05-04T11:19:06.875Z,17.88
2023-05-04T11:21:33.261Z,17.44
2023-05-04T11:24:00.234Z,17.56
2023-05-04T11:26:26.654Z,17.05
2023-05-04T11:28:53.073Z,16.67
2023-05-04T11:31:22.583Z,17.24
2023-05-04T11:33:49.555Z,17.59
2023-05-04T11:36:16.620Z,17.57
2023-05-04T11:38:43.538Z,16.86
2023-05-04T11:41:10.023Z,16.99
2023-05-04T11:43:37.339Z,17.39
2023-05-04T11:46:04.679Z,16.48
2023-05-04T11:48:33.138Z,16.60
2023-05-04T11:50:59.638Z,16.63
2023-05-04T11:53:26.332Z,17.06
2023-05-04T11:55:54.410Z,16.84
2023-05-04T11:58:24.051Z,16.40
2023-05-04T12:00:51.258Z,16.47
2023-05-04T12:03:24.547Z,16.52
2023-05-04T12:05:55.249Z,15.89
2023-05-04T12:08:31.946Z,16.00
2023-05-04T12:11:10.649Z,15.70
2023-05-04T12:13:37.204Z,15.61
2023-05-04T12:16:10.676Z,15.71
2023-05-04T12:18:37.290Z,16.16
2023-05-04T12:21:10.671Z,16.24
2023-05-04T12:23:37.251Z,16.45
2023-05-04T12:26:04.020Z,16.90
2023-05-04T12:28:30.371Z,17.15
2023-05-04T12:30:56.828Z,16.63
2023-05-04T12:33:23.621Z,16.98
2023-05-04T12:35:49.953Z,17.32
2023-05-04T12:38:16.292Z,17.38
2023-05-04T12:40:43.135Z,17.13
2023-05-04T12:43:10.310Z,17.49
2023-05-04T12:45:36.796Z,17.74
2023-05-04T12:48:03.292Z,18.01
2023-05-04T12:50:29.743Z,17.89
2023-05-04T12:52:56.100Z,17.37
2023-05-04T12:55:25.212Z,16.69
2023-05-04T12:57:51.953Z,16.62
2023-05-04T13:00:18.441Z,15.85
2023-05-04T13:02:44.986Z,15.61
2023-05-04T13:05:13.249Z,15.76
2023-05-04T13:07:39.604Z,15.91
2023-05-04T13:10:06.254Z,15.61
2023-05-04T13:12:33.023Z,15.79
2023-05-04T13:15:00.319Z,15.76
2023-05-04T13:17:27.597Z,14.85
2023-05-04T13:19:54.380Z,15.25
2023-05-04T13:22:21.338Z,15.55
2023-05-04T13:24:47.801Z,15.35
2023-05-04T13:27:15.021Z,14.91
2023-05-04T13:29:44.154Z,14.41
2023-05-04T13:32:10.681Z,14.63
2023-05-04T13:34:37.039Z,14.76
2023-05-04T13:37:03.629Z,14.72
2023-05-04T13:39:30.111Z,14.14
2023-05-04T13:41:56.493Z,14.20
2023-05-04T13:44:22.932Z,14.21
2023-05-04T13:46:49.407Z,14.34
2023-05-04T13:49:15.974Z,14.51
2023-05-04T13:51:43.231Z,14.10
2023-05-04T13:54:09.670Z,13.81
2023-05-04T13:56:36.022Z,13.80
2023-05-04T13:59:02.395Z,13.83
2023-05-04T14:01:28.853Z,14.19
2023-05-04T14:03:55.263Z,13.82
2023-05-04T14:06:21.906Z,13.81
2023-05-04T14:08:48.365Z,13.70
2023-05-04T14:11:14.713Z,13.14
2023-05-04T14:13:41.087Z,12.89
2023-05-04T14:16:07.507Z,13.03
2023-05-04T14:18:33.995Z,13.41
2023-05-04T14:21:00.549Z,13.64
2023-05-04T14:23:27.363Z,13.62
2023-05-04T14:25:55.681Z,13.71
2023-05-04T14:28:24.694Z,13.76
2023-05-04T14:30:51.151Z,13.41
2023-05-04T14:33:21.104Z,13.22
2023-05-04T14:35:48.365Z,13.43
2023-05-04T14:38:14.987Z,13.51
2023-05-04T14:40:41.325Z,13.54
2023-05-04T14:43:07.962Z,13.12
2023-05-04T14:45:35.001Z,12.54
2023-05-04T14:48:02.325Z,12.59
2023-05-04T14:50:28.884Z,12.36
2023-05-04T14:52:55.380Z,12.36
2023-05-04T14:55:21.763Z,12.39
2023-05-04T14:57:48.137Z,12.34
2023-05-04T15:00:17.035Z,12.18
2023-05-04T15:02:43.755Z,11.94
2023-05-04T15:05:12.471Z,12.07
2023-05-04T15:07:39.489Z,11.97
2023-05-04T15:10:08.086Z,11.86
2023-05-04T15:12:35.125Z,11.62
2023-05-04T15:15:01.814Z,11.55
2023-05-04T15:17:28.226Z,11.61
2023-05-04T15:19:54.595Z,11.45
2023-05-04T15:22:21.694Z,11.66
2023-05-04T15:24:48.074Z,11.52
2023-05-04T15:27:14.782Z,11.51
2023-05-04T15:29:41.192Z,11.11
2023-05-04T15:32:07.596Z,11.36
2023-05-04T15:34:34.305Z,11.14
2023-05-04T15:37:00.687Z,10.92
2023-05-04T15:39:27.087Z,10.98
2023-05-04T15:41:53.488Z,11.01
2023-05-04T15:44:21.021Z,11.11
2023-05-04T15:46:47.536Z,11.21
2023-05-04T15:49:14.378Z,11.21
2023-05-04T15:51:42.643Z,10.89
2023-05-04T15:54:09.054Z,11.03
2023-05-04T15:56:36.097Z,11.01
2023-05-04T15:59:05.449Z,10.61
2023-05-04T16:01:32.164Z,10.89
2023-05-04T16:04:02.111Z,10.91
2023-05-04T16:06:28.880Z,10.98
2023-05-04T16:08:55.499Z,11.09
2023-05-04T16:11:21.846Z,11.12
2023-05-04T16:13:48.256Z,11.03
2023-05-04T16:16:17.572Z,10.99
2023-05-04T16:18:44.275Z,10.84
2023-05-04T16:21:14.021Z,10.98
2023-05-04T16:23:40.926Z,11.00
2023-05-04T16:26:09.954Z,10.73
2023-05-04T16:28:36.848Z,10.87
2023-05-04T16:31:05.850Z,10.95
2023-05-04T16:33:32.432Z,10.72
2023-05-04T16:35:59.843Z,10.64
2023-05-04T16:38:26.274Z,10.67
2023-05-04T16:40:52.608Z,10.40
2023-05-04T16:43:19.328Z,10.35
2023-05-04T16:45:46.003Z,10.29
2023-05-04T16:48:12.452Z,10.22
2023-05-04T16:50:39.072Z,10.09
2023-05-04T16:53:08.187Z,10.11
2023-05-04T16:55:35.917Z,10.17
2023-05-04T16:58:02.544Z,10.02
2023-05-04T17:00:29.104Z,9.93
2023-05-04T17:02:56.975Z,9.99
2023-05-04T17:05:23.824Z,10.11
2023-05-04T17:07:50.652Z,10.10
2023-05-04T17:10:18.653Z,10.03
2023-05-04T17:12:45.208Z,9.88
2023-05-04T17:15:12.394Z,9.81
2023-05-04T17:17:38.836Z,9.80
2023-05-04T17:20:06.194Z,9.62
2023-05-04T17:22:32.779Z,9.59
2023-05-04T17:24:59.224Z,9.55
2023-05-04T17:27:25.643Z,9.40
2023-05-04T17:29:52.088Z,9.42
2023-05-04T17:32:18.616Z,9.39
2023-05-04T17:34:45.040Z,9.31
2023-05-04T17:37:11.367Z,9.34
2023-05-04T17:39:37.697Z,9.23
2023-05-04T17:42:04.130Z,9.24
2023-05-04T17:44:32.692Z,9.20
2023-05-04T17:46:59.264Z,9.11
2023-05-04T17:49:25.767Z,9.14
2023-05-04T17:51:53.131Z,8.99
2023-05-04T17:54:19.470Z,8.97
2023-05-04T17:56:45.894Z,8.94
2023-05-04T17:59:12.307Z,8.82
2023-05-04T18:01:38.655Z,8.68
2023-05-04T18:04:05.170Z,8.74
2023-05-04T18:06:32.498Z,8.72
2023-05-04T18:08:59.224Z,8.74
2023-05-04T18:11:26.165Z,8.63
2023-05-04T18:13:52.595Z,8.67
2023-05-04T18:16:19.095Z,8.52
2023-05-04T18:18:45.851Z,8.54
2023-05-04T18:21:12.367Z,8.41
2023-05-04T18:23:38.666Z,8.49
2023-05-04T18:26:05.263Z,8.50
2023-05-04T18:28:32.136Z,8.43
2023-05-04T18:30:58.673Z,8.37
2023-05-04T18:33:25.094Z,8.30
2023-05-04T18:35:51.852Z,8.43
2023-05-04T18:38:18.780Z,8.45
2023-05-04T18:40:45.544Z,8.37
2023-05-04T18:43:11.951Z,8.44
2023-05-04T18:45:38.342Z,8.42
2023-05-04T18:48:04.940Z,8.37
2023-05-04T18:50:31.336Z,8.51
2023-05-04T18:52:57.844Z,8.71
2023-05-04T18:55:24.271Z,8.85
2023-05-04T18:57:51.408Z,8.66
2023-05-04T19:00:21.379Z,8.50
2023-05-04T19:02:47.883Z,8.08
2023-05-04T19:05:15.002Z,8.28
2023-05-04T19:07:41.465Z,8.31
2023-05-04T19:10:08.580Z,8.16
2023-05-04T19:12:35.425Z,8.11
2023-05-04T19:17:37.122Z,8.14
2023-05-04T19:20:03.865Z,8.22
2023-05-04T19:22:30.240Z,8.14
2023-05-04T19:24:56.665Z,8.09
2023-05-04T19:27:23.001Z,8.05
2023-05-04T19:29:49.356Z,8.01
2023-05-04T19:32:23.463Z,8.05
2023-05-04T19:34:51.089Z,8.02
2023-05-04T19:37:17.649Z,8.06
2023-05-04T19:39:43.980Z,7.90
2023-05-04T19:42:10.417Z,7.78
2023-05-04T19:44:37.145Z,8.22
2023-05-04T19:47:03.676Z,8.27
2023-05-04T19:49:30.103Z,8.41
2023-05-04T19:51:56.454Z,8.49
2023-05-04T19:54:22.840Z,8.42
2023-05-04T19:56:49.250Z,8.57
2023-05-04T19:59:15.795Z,8.74
2023-05-04T20:01:42.157Z,8.52
2023-05-04T20:04:08.573Z,8.45
2023-05-04T20:06:35.645Z,8.15
2023-05-04T20:09:02.380Z,8.10
2023-05-04T20:11:28.729Z,8.11
2023-05-04T20:13:55.831Z,7.98
2023-05-04T20:16:22.297Z,7.92
2023-05-04T20:18:49.075Z,7.82
2023-05-04T20:21:15.488Z,7.81
2023-05-04T20:23:41.912Z,7.64
2023-05-04T20:26:08.221Z,7.63
2023-05-04T20:28:34.562Z,7.71
2023-05-04T20:31:02.790Z,7.71
2023-05-04T20:33:29.144Z,7.79
2023-05-04T20:35:55.547Z,7.66
2023-05-04T20:38:22.004Z,7.53
2023-05-04T20:40:49.001Z,7.55
2023-05-04T20:43:16.371Z,7.60
2023-05-04T20:45:42.706Z,7.63
2023-05-04T20:48:09.178Z,7.74
2023-05-04T20:50:35.969Z,7.49
2023-05-04T20:53:02.807Z,7.54
2023-05-04T20:55:29.284Z,7.48
2023-05-04T20:57:55.714Z,7.44
2023-05-04T21:00:22.060Z,7.27
2023-05-04T21:02:48.739Z,7.37
2023-05-04T21:05:15.312Z,7.19
2023-05-04T21:07:41.654Z,7.26
2023-05-04T21:10:08.626Z,7.27
2023-05-04T21:12:35.354Z,7.25
2023-05-04T21:15:01.724Z,7.27
2023-05-04T21:17:28.152Z,7.15
2023-05-04T21:19:54.546Z,7.24
2023-05-04T21:22:21.242Z,7.23
2023-05-04T21:24:48.739Z,7.25
2023-05-04T21:27:15.143Z,7.29
2023-05-04T21:29:41.517Z,7.26
2023-05-04T21:32:08.038Z,7.21
2023-05-04T21:34:34.410Z,7.15
2023-05-04T21:37:00.786Z,7.10
2023-05-04T21:39:27.141Z,7.07
2023-05-04T21:41:53.548Z,7.05
2023-05-04T21:44:19.914Z,7.15
2023-05-04T21:46:46.294Z,7.18
2023-05-04T21:49:12.680Z,7.07
2023-05-04T21:51:39.005Z,7.15
2023-05-04T21:54:05.446Z,7.10
2023-05-04T21:56:31.835Z,7.15
2023-05-04T21:58:58.188Z,7.12
2023-05-04T22:01:24.865Z,6.94
2023-05-04T22:03:52.853Z,6.95
2023-05-04T22:06:21.514Z,6.99
2023-05-04T22:08:47.995Z,6.91
2023-05-04T22:11:14.346Z,6.95
2023-05-04T22:13:40.759Z,7.09
2023-05-04T22:16:08.366Z,6.92
2023-05-04T22:18:34.738Z,7.03
2023-05-04T22:21:01.184Z,7.01
2023-05-04T22:23:27.514Z,6.97
2023-05-04T22:25:53.923Z,7.00
2023-05-04T22:28:20.788Z,6.98
2023-05-04T22:30:47.205Z,6.88
2023-05-04T22:33:13.660Z,6.87
2023-05-04T22:35:40.009Z,6.93
2023-05-04T22:38:06.715Z,6.88
2023-05-04T22:40:33.204Z,6.92
2023-05-04T22:42:59.513Z,6.95
2023-05-04T22:45:25.993Z,6.97
2023-05-04T22:47:52.437Z,6.93
2023-05-04T22:50:19.592Z,6.95
2023-05-04T22:52:45.988Z,6.96
2023-05-04T22:55:12.444Z,6.89
2023-05-04T22:57:38.858Z,6.82
2023-05-04T23:00:07.465Z,6.87
2023-05-04T23:02:34.524Z,6.92
2023-05-04T23:05:01.261Z,6.87
2023-05-04T23:07:27.611Z,6.89
2023-05-04T23:09:54.294Z,6.95
2023-05-04T23:12:20.627Z,6.95
2023-05-04T23:14:49.575Z,6.89
2023-05-04T23:17:15.972Z,6.88
2023-05-04T23:19:42.373Z,6.80
2023-05-04T23:22:08.674Z,6.88
2023-05-04T23:24:35.118Z,6.89
2023-05-04T23:27:02.061Z,6.79
2023-05-04T23:29:28.504Z,6.79
2023-05-04T23:31:55.026Z,6.77
2023-05-04T23:34:21.404Z,6.78
2023-05-04T23:36:47.804Z,6.80
2023-05-04T23:39:14.337Z,6.81
2023-05-04T23:41:43.281Z,6.78
2023-05-04T23:44:09.727Z,6.80
2023-05-04T23:46:36.094Z,6.76
2023-05-04T23:49:02.422Z,6.71
2023-05-04T23:51:28.800Z,6.77
2023-05-04T23:53:55.802Z,6.78
2023-05-04T23:56:22.201Z,6.78
2023-05-04T23:58:48.556Z,6.78
